sensor_id;sensor_type;location;lat;lon;timestamp;P1;durP1;ratioP1;P2;durP2;ratioP2
4448;SDS011;2237;51.870;6.160;2022-07-23T00:00:58;3.35;;;2.08;;
4448;SDS011;2237;51.870;6.160;2022-07-23T00:03:24;6.60;;;2.13;;
4448;SDS011;2237;51.870;6.160;2022-07-23T00:05:51;4.65;;;2.58;;
4448;SDS011;2237;51.870;6.160;2022-07-23T00:08:17;3.42;;;2.00;;
4448;SDS011;2237;51.870;6.160;2022-07-23T00:10:44;5.85;;;2.30;;
4448;SDS011;2237;51.870;6.160;2022-07-23T00:13:10;4.18;;;2.35;;
4448;SDS011;2237;51.870;6.160;2022-07-23T00:15:36;4.55;;;2.50;;
4448;SDS011;2237;51.870;6.160;2022-07-23T00:18:03;3.45;;;2.28;;
4448;SDS011;2237;51.870;6.160;2022-07-23T00:20:29;4.70;;;1.92;;
4448;SDS011;2237;51.870;6.160;2022-07-23T00:22:56;3.83;;;2.13;;
4448;SDS011;2237;51.870;6.160;2022-07-23T00:25:22;4.38;;;2.42;;
4448;SDS011;2237;51.870;6.160;2022-07-23T00:27:54;5.25;;;2.35;;
4448;SDS011;2237;51.870;6.160;2022-07-23T00:30:21;4.38;;;2.28;;
4448;SDS011;2237;51.870;6.160;2022-07-23T00:32:48;3.15;;;2.20;;
4448;SDS011;2237;51.870;6.160;2022-07-23T00:35:22;3.25;;;2.25;;
4448;SDS011;2237;51.870;6.160;2022-07-23T00:37:54;4.55;;;2.10;;
4448;SDS011;2237;51.870;6.160;2022-07-23T00:40:21;4.38;;;2.45;;
4448;SDS011;2237;51.870;6.160;2022-07-23T00:42:48;5.07;;;2.30;;
4448;SDS011;2237;51.870;6.160;2022-07-23T00:45:15;5.20;;;2.30;;
4448;SDS011;2237;51.870;6.160;2022-07-23T00:47:41;4.00;;;2.33;;
4448;SDS011;2237;51.870;6.160;2022-07-23T00:50:08;5.05;;;2.60;;
4448;SDS011;2237;51.870;6.160;2022-07-23T00:52:36;4.40;;;2.55;;
4448;SDS011;2237;51.870;6.160;2022-07-23T00:55:04;3.90;;;2.10;;
4448;SDS011;2237;51.870;6.160;2022-07-23T00:57:32;2.63;;;2.20;;
4448;SDS011;2237;51.870;6.160;2022-07-23T00:59:59;4.45;;;2.58;;
4448;SDS011;2237;51.870;6.160;2022-07-23T01:02:26;4.93;;;2.65;;
4448;SDS011;2237;51.870;6.160;2022-07-23T01:04:53;3.78;;;2.45;;
4448;SDS011;2237;51.870;6.160;2022-07-23T01:07:20;4.57;;;2.70;;
4448;SDS011;2237;51.870;6.160;2022-07-23T01:09:47;4.80;;;2.72;;
4448;SDS011;2237;51.870;6.160;2022-07-23T01:12:15;4.88;;;2.50;;
4448;SDS011;2237;51.870;6.160;2022-07-23T01:14:42;7.32;;;2.80;;
4448;SDS011;2237;51.870;6.160;2022-07-23T01:17:08;5.20;;;2.53;;
4448;SDS011;2237;51.870;6.160;2022-07-23T01:19:35;5.30;;;2.60;;
4448;SDS011;2237;51.870;6.160;2022-07-23T01:22:02;5.43;;;2.80;;
4448;SDS011;2237;51.870;6.160;2022-07-23T01:24:29;5.10;;;2.60;;
4448;SDS011;2237;51.870;6.160;2022-07-23T01:26:56;7.60;;;3.00;;
4448;SDS011;2237;51.870;6.160;2022-07-23T01:29:22;5.45;;;2.90;;
4448;SDS011;2237;51.870;6.160;2022-07-23T01:31:49;3.40;;;2.55;;
4448;SDS011;2237;51.870;6.160;2022-07-23T01:34:15;5.30;;;2.70;;
4448;SDS011;2237;51.870;6.160;2022-07-23T01:36:42;4.55;;;2.42;;
4448;SDS011;2237;51.870;6.160;2022-07-23T01:39:09;5.05;;;2.63;;
4448;SDS011;2237;51.870;6.160;2022-07-23T01:41:35;3.92;;;2.63;;
4448;SDS011;2237;51.870;6.160;2022-07-23T01:44:02;5.63;;;2.88;;
4448;SDS011;2237;51.870;6.160;2022-07-23T01:46:29;7.68;;;3.00;;
4448;SDS011;2237;51.870;6.160;2022-07-23T01:48:55;5.30;;;2.63;;
4448;SDS011;2237;51.870;6.160;2022-07-23T01:51:22;5.88;;;2.90;;
4448;SDS011;2237;51.870;6.160;2022-07-23T01:53:49;4.47;;;2.97;;
4448;SDS011;2237;51.870;6.160;2022-07-23T01:56:15;6.10;;;3.10;;
4448;SDS011;2237;51.870;6.160;2022-07-23T01:58:41;5.72;;;3.25;;
4448;SDS011;2237;51.870;6.160;2022-07-23T02:01:08;5.57;;;3.20;;
4448;SDS011;2237;51.870;6.160;2022-07-23T02:03:35;6.70;;;3.53;;
4448;SDS011;2237;51.870;6.160;2022-07-23T02:06:02;9.00;;;3.47;;
4448;SDS011;2237;51.870;6.160;2022-07-23T02:08:28;5.53;;;3.08;;
4448;SDS011;2237;51.870;6.160;2022-07-23T02:10:55;5.82;;;3.30;;
4448;SDS011;2237;51.870;6.160;2022-07-23T02:13:21;5.18;;;3.28;;
4448;SDS011;2237;51.870;6.160;2022-07-23T02:15:48;5.20;;;3.35;;
4448;SDS011;2237;51.870;6.160;2022-07-23T02:18:14;6.70;;;3.88;;
4448;SDS011;2237;51.870;6.160;2022-07-23T02:20:41;4.22;;;2.92;;
4448;SDS011;2237;51.870;6.160;2022-07-23T02:23:08;6.00;;;3.33;;
4448;SDS011;2237;51.870;6.160;2022-07-23T02:25:34;6.25;;;3.45;;
4448;SDS011;2237;51.870;6.160;2022-07-23T02:28:01;5.28;;;3.33;;
4448;SDS011;2237;51.870;6.160;2022-07-23T02:30:28;5.05;;;3.10;;
4448;SDS011;2237;51.870;6.160;2022-07-23T02:32:55;4.38;;;2.83;;
4448;SDS011;2237;51.870;6.160;2022-07-23T02:35:21;5.57;;;3.30;;
4448;SDS011;2237;51.870;6.160;2022-07-23T02:37:48;4.10;;;2.90;;
4448;SDS011;2237;51.870;6.160;2022-07-23T02:40:16;6.88;;;3.10;;
4448;SDS011;2237;51.870;6.160;2022-07-23T02:42:43;4.65;;;3.08;;
4448;SDS011;2237;51.870;6.160;2022-07-23T02:45:10;4.72;;;3.25;;
4448;SDS011;2237;51.870;6.160;2022-07-23T02:47:36;6.97;;;3.58;;
4448;SDS011;2237;51.870;6.160;2022-07-23T02:50:03;6.50;;;3.88;;
4448;SDS011;2237;51.870;6.160;2022-07-23T02:52:31;5.85;;;3.22;;
4448;SDS011;2237;51.870;6.160;2022-07-23T02:54:57;6.93;;;3.78;;
4448;SDS011;2237;51.870;6.160;2022-07-23T02:57:24;7.40;;;3.25;;
4448;SDS011;2237;51.870;6.160;2022-07-23T02:59:50;4.90;;;3.35;;
4448;SDS011;2237;51.870;6.160;2022-07-23T03:02:16;6.15;;;3.67;;
4448;SDS011;2237;51.870;6.160;2022-07-23T03:04:43;8.60;;;3.70;;
4448;SDS011;2237;51.870;6.160;2022-07-23T03:07:10;5.72;;;3.70;;
4448;SDS011;2237;51.870;6.160;2022-07-23T03:09:36;5.72;;;3.50;;
4448;SDS011;2237;51.870;6.160;2022-07-23T03:12:02;6.63;;;3.70;;
4448;SDS011;2237;51.870;6.160;2022-07-23T03:14:29;8.52;;;4.20;;
4448;SDS011;2237;51.870;6.160;2022-07-23T03:16:55;6.45;;;3.47;;
4448;SDS011;2237;51.870;6.160;2022-07-23T03:19:22;7.30;;;3.70;;
4448;SDS011;2237;51.870;6.160;2022-07-23T03:21:49;5.45;;;3.78;;
4448;SDS011;2237;51.870;6.160;2022-07-23T03:24:15;6.57;;;4.00;;
4448;SDS011;2237;51.870;6.160;2022-07-23T03:26:44;5.63;;;4.07;;
4448;SDS011;2237;51.870;6.160;2022-07-23T03:29:11;5.60;;;3.75;;
4448;SDS011;2237;51.870;6.160;2022-07-23T03:31:37;7.20;;;4.00;;
4448;SDS011;2237;51.870;6.160;2022-07-23T03:34:04;8.60;;;4.03;;
4448;SDS011;2237;51.870;6.160;2022-07-23T03:36:30;8.90;;;3.92;;
4448;SDS011;2237;51.870;6.160;2022-07-23T03:38:57;6.78;;;3.60;;
4448;SDS011;2237;51.870;6.160;2022-07-23T03:41:26;6.20;;;3.92;;
4448;SDS011;2237;51.870;6.160;2022-07-23T03:43:52;7.50;;;3.97;;
4448;SDS011;2237;51.870;6.160;2022-07-23T03:46:19;10.98;;;3.60;;
4448;SDS011;2237;51.870;6.160;2022-07-23T03:48:45;7.60;;;4.20;;
4448;SDS011;2237;51.870;6.160;2022-07-23T03:51:12;6.95;;;3.90;;
4448;SDS011;2237;51.870;6.160;2022-07-23T03:53:38;7.68;;;3.88;;
4448;SDS011;2237;51.870;6.160;2022-07-23T03:56:05;8.93;;;4.60;;
4448;SDS011;2237;51.870;6.160;2022-07-23T03:58:31;8.40;;;4.32;;
4448;SDS011;2237;51.870;6.160;2022-07-23T04:00:58;6.90;;;4.05;;
4448;SDS011;2237;51.870;6.160;2022-07-23T04:03:24;5.47;;;3.63;;
4448;SDS011;2237;51.870;6.160;2022-07-23T04:05:51;8.18;;;4.03;;
4448;SDS011;2237;51.870;6.160;2022-07-23T04:08:17;8.27;;;4.15;;
4448;SDS011;2237;51.870;6.160;2022-07-23T04:10:43;6.85;;;4.22;;
4448;SDS011;2237;51.870;6.160;2022-07-23T04:13:10;8.02;;;4.28;;
4448;SDS011;2237;51.870;6.160;2022-07-23T04:15:36;7.97;;;4.85;;
4448;SDS011;2237;51.870;6.160;2022-07-23T04:18:04;6.55;;;4.10;;
4448;SDS011;2237;51.870;6.160;2022-07-23T04:20:30;9.82;;;4.03;;
4448;SDS011;2237;51.870;6.160;2022-07-23T04:23:02;6.68;;;3.97;;
4448;SDS011;2237;51.870;6.160;2022-07-23T04:25:30;5.78;;;3.83;;
4448;SDS011;2237;51.870;6.160;2022-07-23T04:27:57;7.88;;;4.30;;
4448;SDS011;2237;51.870;6.160;2022-07-23T04:30:23;9.10;;;4.20;;
4448;SDS011;2237;51.870;6.160;2022-07-23T04:32:50;6.68;;;4.55;;
4448;SDS011;2237;51.870;6.160;2022-07-23T04:35:16;7.68;;;4.68;;
4448;SDS011;2237;51.870;6.160;2022-07-23T04:37:42;7.28;;;4.45;;
4448;SDS011;2237;51.870;6.160;2022-07-23T04:40:09;6.35;;;4.22;;
4448;SDS011;2237;51.870;6.160;2022-07-23T04:42:38;7.15;;;4.85;;
4448;SDS011;2237;51.870;6.160;2022-07-23T04:45:05;9.05;;;4.97;;
4448;SDS011;2237;51.870;6.160;2022-07-23T04:47:38;9.02;;;4.55;;
4448;SDS011;2237;51.870;6.160;2022-07-23T04:50:05;7.45;;;4.57;;
4448;SDS011;2237;51.870;6.160;2022-07-23T04:52:31;8.10;;;4.47;;
4448;SDS011;2237;51.870;6.160;2022-07-23T04:54:58;8.27;;;4.32;;
4448;SDS011;2237;51.870;6.160;2022-07-23T04:57:24;8.85;;;4.97;;
4448;SDS011;2237;51.870;6.160;2022-07-23T04:59:50;9.25;;;4.60;;
4448;SDS011;2237;51.870;6.160;2022-07-23T05:02:17;8.40;;;4.55;;
4448;SDS011;2237;51.870;6.160;2022-07-23T05:04:43;10.40;;;4.78;;
4448;SDS011;2237;51.870;6.160;2022-07-23T05:07:10;9.00;;;4.30;;
4448;SDS011;2237;51.870;6.160;2022-07-23T05:09:36;11.07;;;5.10;;
4448;SDS011;2237;51.870;6.160;2022-07-23T05:12:03;7.55;;;4.70;;
4448;SDS011;2237;51.870;6.160;2022-07-23T05:14:29;7.10;;;4.75;;
4448;SDS011;2237;51.870;6.160;2022-07-23T05:16:56;8.07;;;4.35;;
4448;SDS011;2237;51.870;6.160;2022-07-23T05:19:22;8.77;;;4.43;;
4448;SDS011;2237;51.870;6.160;2022-07-23T05:21:50;6.60;;;4.22;;
4448;SDS011;2237;51.870;6.160;2022-07-23T05:24:17;8.10;;;4.25;;
4448;SDS011;2237;51.870;6.160;2022-07-23T05:26:43;8.80;;;4.15;;
4448;SDS011;2237;51.870;6.160;2022-07-23T05:29:10;8.85;;;3.95;;
4448;SDS011;2237;51.870;6.160;2022-07-23T05:31:36;8.13;;;4.10;;
4448;SDS011;2237;51.870;6.160;2022-07-23T05:34:03;9.48;;;4.40;;
4448;SDS011;2237;51.870;6.160;2022-07-23T05:36:31;8.43;;;4.30;;
4448;SDS011;2237;51.870;6.160;2022-07-23T05:38:58;7.75;;;3.90;;
4448;SDS011;2237;51.870;6.160;2022-07-23T05:41:25;8.82;;;4.28;;
4448;SDS011;2237;51.870;6.160;2022-07-23T05:43:51;9.88;;;4.30;;
4448;SDS011;2237;51.870;6.160;2022-07-23T05:46:17;8.10;;;4.00;;
4448;SDS011;2237;51.870;6.160;2022-07-23T05:48:44;7.35;;;4.72;;
